Time;durP1;ratioP1;P1;durP2;ratioP2;P2;SDS_P1;SDS_P2;PMS_P1;PMS_P2;Temp;Humidity;BMP_temperature;BMP_pressure;BME280_temperature;BME280_humidity;BME280_pressure;Samples;Min_cycle;Max_cycle;Signal;HPM_P1;HPM_P2
2021/01/10 00:01:33;;;;;;;69.43;22.13;;;2.50;99.90;;;;;;4977442;28;20034;-74
2021/01/10 00:03:59;;;;;;;77.88;21.85;;;2.50;99.90;;;;;;4984206;28;20035;-75
2021/01/10 00:06:25;;;;;;;63.63;20.60;;;2.50;99.90;;;;;;4976550;28;20486;-74
2021/01/10 00:08:50;;;;;;;63.80;21.85;;;2.50;99.90;;;;;;4977342;28;20062;-74
2021/01/10 00:11:16;;;;;;;63.13;21.45;;;2.30;99.90;;;;;;4988447;28;20185;-74
2021/01/10 00:13:42;;;;;;;62.92;21.50;;;2.40;99.90;;;;;;4975648;28;20046;-74
2021/01/10 00:16:07;;;;;;;64.97;22.00;;;2.40;99.90;;;;;;4975390;28;20034;-74
2021/01/10 00:18:33;;;;;;;65.15;20.30;;;2.40;99.90;;;;;;4973120;28;20027;-75
2021/01/10 00:20:59;;;;;;;58.13;19.40;;;2.30;99.90;;;;;;4974766;28;20037;-74
2021/01/10 00:23:24;;;;;;;65.05;20.52;;;2.30;99.90;;;;;;4991916;28;20113;-74
2021/01/10 00:25:51;;;;;;;68.20;21.70;;;2.40;99.90;;;;;;4972571;28;20046;-74
2021/01/10 00:28:17;;;;;;;59.25;20.45;;;2.50;99.90;;;;;;4985919;28;20047;-74
2021/01/10 00:30:43;;;;;;;72.50;22.23;;;2.40;99.90;;;;;;4992563;28;20061;-74
2021/01/10 00:33:08;;;;;;;62.97;19.85;;;2.50;99.90;;;;;;4974590;28;20041;-74
2021/01/10 00:35:35;;;;;;;69.07;21.60;;;2.40;99.90;;;;;;4972971;28;20139;-74
2021/01/10 00:38:00;;;;;;;64.50;21.52;;;2.40;99.90;;;;;;4975811;28;20132;-73
2021/01/10 00:40:27;;;;;;;56.58;19.08;;;2.40;99.90;;;;;;4975654;28;20604;-76
2021/01/10 00:42:53;;;;;;;70.10;22.27;;;2.40;99.90;;;;;;4946259;28;20483;-76
2021/01/10 00:45:19;;;;;;;66.28;21.77;;;2.30;99.90;;;;;;4974980;28;20133;-78
2021/01/10 00:47:53;;;;;;;64.20;21.45;;;2.30;99.90;;;;;;4975641;28;20130;-76
2021/01/10 00:50:21;;;;;;;66.95;20.88;;;2.40;99.90;;;;;;4991433;28;20042;-77
2021/01/10 00:52:47;;;;;;;72.20;21.85;;;2.30;99.90;;;;;;4975470;28;20105;-74
2021/01/10 00:55:13;;;;;;;73.28;21.90;;;2.30;99.90;;;;;;4974493;28;20747;-77
2021/01/10 00:57:38;;;;;;;64.95;20.45;;;2.30;99.90;;;;;;4968520;28;20910;-75
2021/01/10 01:00:12;;;;;;;65.55;21.88;;;2.30;99.90;;;;;;4958050;28;20549;-74
2021/01/10 01:02:42;;;;;;;;;;;2.30;99.90;;;;;;4966902;28;20037;-76
2021/01/10 01:05:09;;;;;;;89.13;29.50;;;2.20;99.90;;;;;;4968705;28;19913;-72
2021/01/10 01:07:34;;;;;;;70.78;22.23;;;2.30;99.90;;;;;;4987508;28;20490;-73
2021/01/10 01:10:01;;;;;;;69.55;22.15;;;2.30;99.90;;;;;;4980566;28;20051;-74
2021/01/10 01:12:26;;;;;;;64.60;20.77;;;2.30;99.90;;;;;;4971321;28;20685;-75
2021/01/10 01:14:52;;;;;;;70.43;22.42;;;2.20;99.90;;;;;;4973218;28;20588;-74
2021/01/10 01:17:19;;;;;;;64.82;21.15;;;2.10;99.90;;;;;;4970350;28;20022;-75
2021/01/10 01:19:44;;;;;;;67.28;20.80;;;2.10;99.90;;;;;;4967180;28;20828;-74
2021/01/10 01:22:10;;;;;;;67.75;21.55;;;2.20;99.90;;;;;;4987829;28;20033;-75
2021/01/10 01:24:36;;;;;;;64.22;21.35;;;2.20;99.90;;;;;;4975571;28;20038;-75
2021/01/10 01:27:01;;;;;;;71.05;21.77;;;2.30;99.90;;;;;;4971010;28;20117;-74
2021/01/10 01:29:27;;;;;;;76.32;22.77;;;2.30;99.90;;;;;;4977139;28;20407;-74
2021/01/10 01:31:52;;;;;;;61.05;20.60;;;2.30;99.90;;;;;;4976765;28;20499;-74
2021/01/10 01:34:18;;;;;;;72.47;21.88;;;2.20;99.90;;;;;;4979886;28;20049;-74
2021/01/10 01:36:44;;;;;;;69.75;22.27;;;2.10;99.90;;;;;;4979802;28;20026;-75
2021/01/10 01:39:09;;;;;;;73.78;23.02;;;2.20;99.90;;;;;;4977066;28;20031;-74
2021/01/10 01:41:37;;;;;;;73.13;22.00;;;2.20;99.90;;;;;;4979743;28;20037;-74
2021/01/10 01:44:04;;;;;;;77.53;22.48;;;2.20;99.90;;;;;;4979684;28;20106;-74
2021/01/10 01:46:35;;;;;;;75.60;22.15;;;2.20;99.90;;;;;;4960892;28;20113;-75
2021/01/10 01:49:07;;;;;;;70.35;22.05;;;2.20;99.90;;;;;;4980181;28;20391;-74
2021/01/10 01:51:34;;;;;;;69.95;21.85;;;2.20;99.90;;;;;;4980299;28;20034;-74
2021/01/10 01:54:01;;;;;;;77.72;22.10;;;2.20;99.90;;;;;;4979945;28;20034;-74
2021/01/10 01:56:27;;;;;;;66.93;21.33;;;2.30;99.90;;;;;;4975737;28;20038;-74
2021/01/10 01:59:03;;;;;;;65.32;20.98;;;2.10;99.90;;;;;;4986479;28;20037;-74
2021/01/10 02:01:30;;;;;;;64.20;20.60;;;2.10;99.90;;;;;;4974264;28;20030;-76
2021/01/10 02:03:59;;;;;;;61.47;20.45;;;2.10;99.90;;;;;;4973364;28;20120;-74
2021/01/10 02:06:30;;;;;;;60.70;19.70;;;2.10;99.90;;;;;;4970556;28;20030;-75
2021/01/10 02:09:01;;;;;;;64.05;20.60;;;2.10;99.90;;;;;;4991469;28;20070;-75
2021/01/10 02:11:28;;;;;;;58.80;19.65;;;2.10;99.90;;;;;;4974554;28;20613;-75
2021/01/10 02:13:54;;;;;;;53.70;18.63;;;2.10;99.90;;;;;;4978001;28;20210;-73
2021/01/10 02:16:20;;;;;;;59.20;19.08;;;2.10;99.90;;;;;;4978713;28;20042;-75
2021/01/10 02:18:46;;;;;;;53.90;18.58;;;2.10;99.90;;;;;;4971404;28;20038;-75
2021/01/10 02:21:15;;;;;;;54.13;18.08;;;2.00;99.90;;;;;;4969859;28;20034;-75
2021/01/10 02:23:43;;;;;;;55.03;18.05;;;2.00;99.90;;;;;;4973983;28;20030;-75
2021/01/10 02:26:09;;;;;;;62.22;20.45;;;2.00;99.90;;;;;;4966825;28;20038;-75
2021/01/10 02:28:35;;;;;;;54.67;17.73;;;2.00;99.90;;;;;;4972517;28;20149;-75
2021/01/10 02:31:04;;;;;;;51.63;18.10;;;2.00;99.90;;;;;;4973898;28;20039;-75
2021/01/10 02:33:46;;;;;;;54.63;18.00;;;2.20;99.90;;;;;;4972287;28;20471;-75
2021/01/10 02:36:27;;;;;;;52.83;16.73;;;2.20;99.90;;;;;;4986565;28;20040;-75
2021/01/10 02:39:02;;;;;;;56.00;18.83;;;2.10;99.90;;;;;;4974273;28;20041;-75
2021/01/10 02:41:50;;;;;;;66.85;25.73;;;2.10;99.90;;;;;;4972079;28;20039;-71
2021/01/10 02:44:29;;;;;;;50.85;17.70;;;2.00;99.90;;;;;;4975628;28;20046;-75
2021/01/10 02:46:56;;;;;;;45.30;16.20;;;2.00;99.90;;;;;;4986758;28;20038;-75
2021/01/10 02:49:22;;;;;;;44.22;16.33;;;1.90;99.90;;;;;;4975210;28;20633;-75
2021/01/10 02:51:49;;;;;;;45.50;15.45;;;1.90;99.90;;;;;;4971870;28;20035;-75
2021/01/10 02:54:15;;;;;;;43.92;14.80;;;1.90;99.90;;;;;;4976944;28;20034;-75
2021/01/10 02:56:48;;;;;;;45.25;16.25;;;1.90;99.90;;;;;;4990674;28;20031;-75
2021/01/10 02:59:21;;;;;;;39.60;15.32;;;1.80;99.90;;;;;;4978707;28;20065;-75
2021/01/10 03:01:48;;;;;;;44.35;16.50;;;1.90;99.90;;;;;;4990568;28;20796;-76
2021/01/10 03:04:15;;;;;;;43.90;15.18;;;1.90;99.90;;;;;;4966415;28;20046;-75
2021/01/10 03:06:42;;;;;;;35.88;14.23;;;1.90;99.90;;;;;;4978900;28;20073;-75
2021/01/10 03:09:10;;;;;;;35.85;13.13;;;1.90;99.90;;;;;;4979511;28;20030;-75
2021/01/10 03:11:36;;;;;;;29.38;12.52;;;1.90;99.90;;;;;;4972591;28;20038;-76
2021/01/10 03:14:02;;;;;;;36.70;13.75;;;1.90;99.90;;;;;;4964931;28;20579;-75
2021/01/10 03:16:28;;;;;;;44.97;15.85;;;2.00;99.90;;;;;;4977685;28;20053;-75
2021/01/10 03:18:54;;;;;;;35.20;14.52;;;1.90;99.90;;;;;;4986556;28;20041;-76
2021/01/10 03:21:20;;;;;;;37.72;14.40;;;1.90;99.90;;;;;;4975929;28;20026;-75
2021/01/10 03:23:46;;;;;;;37.45;14.98;;;1.80;99.90;;;;;;4948851;28;20053;-76
2021/01/10 03:26:11;;;;;;;44.53;16.17;;;1.70;99.90;;;;;;4965377;28;20752;-76
2021/01/10 03:28:37;;;;;;;42.28;15.77;;;1.80;99.90;;;;;;4972111;28;20034;-76
2021/01/10 03:31:03;;;;;;;37.50;14.43;;;1.90;99.90;;;;;;4991830;28;20027;-76
2021/01/10 03:33:28;;;;;;;37.85;14.95;;;1.80;99.90;;;;;;4966966;28;20716;-76
2021/01/10 03:35:54;;;;;;;40.20;15.13;;;1.80;99.90;;;;;;4969805;28;20609;-76
2021/01/10 03:38:20;;;;;;;46.22;16.67;;;1.70;99.90;;;;;;4974928;28;20128;-76
2021/01/10 03:40:45;;;;;;;42.33;15.82;;;1.70;99.90;;;;;;4966031;28;20041;-76
2021/01/10 03:43:11;;;;;;;43.72;16.42;;;1.70;99.90;;;;;;4971178;28;20045;-76
2021/01/10 03:45:37;;;;;;;42.95;14.90;;;1.70;99.90;;;;;;4973786;28;20894;-76
2021/01/10 03:48:03;;;;;;;41.70;14.85;;;1.80;99.90;;;;;;4964685;28;20030;-76
2021/01/10 03:50:29;;;;;;;36.60;13.38;;;1.90;99.90;;;;;;4970955;28;20041;-76
2021/01/10 03:52:54;;;;;;;40.22;14.73;;;1.80;99.90;;;;;;4967876;28;20035;-76
2021/01/10 03:55:20;;;;;;;38.05;13.95;;;1.80;99.90;;;;;;4966420;28;20030;-76
2021/01/10 03:57:46;;;;;;;38.08;13.85;;;1.70;99.90;;;;;;4971888;28;20639;-76
2021/01/10 04:00:12;;;;;;;34.28;14.63;;;1.60;99.90;;;;;;4956025;28;20054;-76
2021/01/10 04:02:38;;;;;;;39.17;15.45;;;1.60;99.90;;;;;;4969057;28;20078;-76
2021/01/10 04:05:05;;;;;;;38.30;13.98;;;1.70;99.90;;;;;;4986403;28;20046;-76
2021/01/10 04:07:31;;;;;;;40.45;15.25;;;1.70;99.90;;;;;;4970883;28;20041;-76
2021/01/10 04:09:58;;;;;;;37.67;15.15;;;1.70;99.90;;;;;;4967197;28;20035;-76
2021/01/10 04:12:23;;;;;;;38.72;15.57;;;1.70;99.90;;;;;;4974559;28;20038;-77
2021/01/10 04:14:55;;;;;;;35.40;14.55;;;1.60;99.90;;;;;;4968979;28;20027;-76
2021/01/10 04:17:25;;;;;;;34.05;14.07;;;1.60;99.90;;;;;;4967832;28;20034;-76
2021/01/10 04:19:54;;;;;;;38.90;14.93;;;1.60;99.90;;;;;;4970127;28;20487;-76
2021/01/10 04:22:20;;;;;;;37.63;14.13;;;1.50;99.90;;;;;;4963508;28;20061;-76
2021/01/10 04:24:46;;;;;;;34.33;13.55;;;1.70;99.90;;;;;;4958683;28;20560;-76
2021/01/10 04:27:12;;;;;;;39.05;14.70;;;1.60;99.90;;;;;;4966316;28;20038;-76
2021/01/10 04:29:38;;;;;;;40.83;14.50;;;1.70;99.90;;;;;;4968530;28;20038;-76
2021/01/10 04:32:04;;;;;;;40.83;15.38;;;1.60;99.90;;;;;;4962172;28;20038;-76
2021/01/10 04:34:29;;;;;;;39.00;14.35;;;1.60;99.90;;;;;;4956473;28;20042;-76
2021/01/10 04:36:55;;;;;;;41.25;14.20;;;1.60;99.90;;;;;;4969151;28;20022;-76
2021/01/10 04:39:21;;;;;;;40.90;15.13;;;1.60;99.90;;;;;;4986186;28;20784;-76
2021/01/10 04:41:47;;;;;;;42.10;15.93;;;1.60;99.90;;;;;;4971376;28;20075;-76
2021/01/10 04:44:13;;;;;;;40.03;14.48;;;1.60;99.90;;;;;;4968718;28;20041;-76
2021/01/10 04:46:40;;;;;;;42.75;15.55;;;1.60;99.90;;;;;;4965997;28;20042;-76
2021/01/10 04:49:06;;;;;;;43.97;16.52;;;1.70;99.90;;;;;;4964409;28;20035;-76
2021/01/10 04:51:34;;;;;;;49.17;16.85;;;1.90;99.90;;;;;;4961499;28;20039;-76
2021/01/10 04:54:02;;;;;;;51.95;16.98;;;1.90;99.90;;;;;;4964698;28;20047;-76
2021/01/10 04:56:29;;;;;;;50.95;16.88;;;1.80;99.90;;;;;;4969493;28;20070;-76
2021/01/10 04:58:59;;;;;;;50.35;16.60;;;1.90;99.90;;;;;;4977318;28;20849;-75
2021/01/10 05:01:29;;;;;;;51.40;18.23;;;1.90;99.90;;;;;;4970305;28;20041;-75
2021/01/10 05:03:55;;;;;;;49.13;16.98;;;1.80;99.90;;;;;;4976762;28;20038;-75
2021/01/10 05:06:22;;;;;;;52.33;18.00;;;1.80;99.90;;;;;;4976725;28;20549;-75
2021/01/10 05:08:53;;;;;;;46.92;17.20;;;1.70;99.90;;;;;;4979577;28;20410;-75
2021/01/10 05:11:18;;;;;;;50.38;16.58;;;1.70;99.90;;;;;;4972484;28;20046;-75
2021/01/10 05:13:44;;;;;;;47.08;17.85;;;1.70;99.90;;;;;;4979759;28;20065;-75
2021/01/10 05:16:20;;;;;;;57.85;18.17;;;1.60;99.90;;;;;;4972360;28;20034;-75
2021/01/10 05:18:53;;;;;;;56.28;18.50;;;1.70;99.90;;;;;;4975146;28;20034;-76
2021/01/10 05:21:21;;;;;;;50.25;18.13;;;1.80;99.90;;;;;;4980044;28;20645;-76
2021/01/10 05:23:51;;;;;;;44.20;16.10;;;1.70;99.90;;;;;;4976107;28;20030;-73
2021/01/10 05:26:19;;;;;;;47.88;17.77;;;1.60;99.90;;;;;;4980242;28;20030;-73
2021/01/10 05:28:45;;;;;;;50.80;18.92;;;1.60;99.90;;;;;;4990631;28;20034;-75
2021/01/10 05:31:12;;;;;;;56.75;19.00;;;1.60;99.90;;;;;;4980943;28;20088;-74
2021/01/10 05:33:51;;;;;;;51.03;19.55;;;1.60;99.90;;;;;;4976892;28;20065;-75
2021/01/10 05:36:26;;;;;;;49.80;18.00;;;1.50;99.90;;;;;;4978726;28;20113;-73
2021/01/10 05:38:53;;;;;;;52.38;18.48;;;1.60;99.90;;;;;;4980342;28;20046;-72
2021/01/10 05:41:20;;;;;;;50.50;18.45;;;1.70;99.90;;;;;;4978706;28;20026;-72
2021/01/10 05:44:00;;;;;;;46.45;17.88;;;1.60;99.90;;;;;;4973273;28;20142;-70
2021/01/10 05:46:31;;;;;;;48.92;17.27;;;1.60;99.90;;;;;;4980620;28;20122;-75
2021/01/10 05:49:00;;;;;;;43.88;16.95;;;1.60;99.90;;;;;;4969358;28;20030;-75
2021/01/10 05:51:30;;;;;;;46.85;18.10;;;1.50;99.90;;;;;;4973400;28;20042;-72
2021/01/10 05:53:56;;;;;;;39.88;16.85;;;1.40;99.90;;;;;;4976216;28;20038;-74
2021/01/10 05:56:22;;;;;;;40.50;16.80;;;1.30;99.90;;;;;;4973484;28;20129;-72
2021/01/10 05:58:56;;;;;;;51.63;20.75;;;1.30;99.90;;;;;;4980553;28;20334;-73
2021/01/10 06:01:24;;;;;;;44.58;17.58;;;1.30;99.90;;;;;;4959109;28;20041;-73
2021/01/10 06:03:50;;;;;;;40.50;17.00;;;1.30;99.90;;;;;;4978797;28;20501;-74
2021/01/10 06:06:16;;;;;;;46.97;17.40;;;1.30;99.90;;;;;;4978288;28;20038;-73
2021/01/10 06:08:42;;;;;;;46.15;17.67;;;1.30;99.90;;;;;;4975157;28;20037;-74
2021/01/10 06:11:27;;;;;;;48.63;18.48;;;1.30;99.90;;;;;;4990429;28;20042;-74
2021/01/10 06:13:57;;;;;;;43.03;16.85;;;1.30;99.90;;;;;;4975690;28;20038;-74
2021/01/10 06:16:25;;;;;;;42.47;17.55;;;1.40;99.90;;;;;;4973770;28;20538;-74
2021/01/10 06:19:03;;;;;;;49.65;17.52;;;1.40;99.90;;;;;;4964018;28;20031;-74
2021/01/10 06:21:31;;;;;;;43.55;18.73;;;1.30;99.90;;;;;;4986758;28;20030;-74
2021/01/10 06:24:01;;;;;;;42.42;17.15;;;1.40;99.90;;;;;;4966050;28;20039;-74
2021/01/10 06:26:29;;;;;;;45.67;18.30;;;1.40;99.90;;;;;;4962477;28;20499;-73
2021/01/10 06:29:03;;;;;;;45.97;18.65;;;1.40;99.90;;;;;;4962446;28;20027;-74
2021/01/10 06:31:34;;;;;;;42.45;17.52;;;1.40;99.90;;;;;;4965065;28;20047;-74
2021/01/10 06:34:08;;;;;;;41.75;16.83;;;1.40;99.90;;;;;;4966310;28;20045;-73
2021/01/10 06:36:40;;;;;;;36.35;15.32;;;1.50;99.90;;;;;;4971734;28;20125;-74
2021/01/10 06:39:10;;;;;;;37.60;15.80;;;1.50;99.90;;;;;;4963273;28;20039;-76
2021/01/10 06:41:35;;;;;;;34.53;15.40;;;1.40;99.90;;;;;;4948139;28;20531;-78
2021/01/10 06:44:09;;;;;;;36.97;15.98;;;1.40;99.90;;;;;;4964990;28;20061;-78
2021/01/10 06:46:35;;;;;;;36.80;15.60;;;1.40;99.90;;;;;;4958708;28;20035;-78
2021/01/10 06:49:02;;;;;;;37.47;16.23;;;1.20;99.90;;;;;;4971938;28;20031;-77
2021/01/10 06:51:29;;;;;;;40.40;17.15;;;1.30;99.90;;;;;;4958289;28;20463;-77
2021/01/10 06:53:55;;;;;;;35.03;15.82;;;1.30;99.90;;;;;;4965075;28;20132;-77
2021/01/10 06:56:21;;;;;;;36.05;15.90;;;1.30;99.90;;;;;;4966638;28;20034;-77
2021/01/10 06:59:17;;;;;;;34.28;13.63;;;1.20;99.90;;;;;;4967122;28;20030;-74
2021/01/10 07:01:48;;;;;;;29.15;12.75;;;1.40;99.90;;;;;;4971338;28;20120;-76
2021/01/10 07:04:36;;;;;;;28.25;12.32;;;1.40;99.90;;;;;;4961223;28;20058;-73
2021/01/10 07:07:03;;;;;;;28.05;13.48;;;1.20;99.90;;;;;;4959298;28;20078;-79
2021/01/10 07:09:52;;;;;;;25.52;11.90;;;1.20;99.90;;;;;;4980292;28;20077;-78
2021/01/10 07:12:22;;;;;;;26.02;11.60;;;1.10;99.90;;;;;;4957197;28;20054;-75
2021/01/10 07:14:48;;;;;;;28.30;13.68;;;1.10;99.90;;;;;;4969030;28;20053;-67
2021/01/10 07:17:15;;;;;;;26.10;12.23;;;1.10;99.90;;;;;;4943796;28;20041;-70
2021/01/10 07:19:42;;;;;;;24.92;11.98;;;1.10;99.90;;;;;;4962360;28;20157;-70
2021/01/10 07:22:25;;;;;;;24.67;11.43;;;1.10;99.90;;;;;;4967614;28;20031;-71
2021/01/10 07:24:50;;;;;;;27.02;12.73;;;1.20;99.90;;;;;;4966365;28;20042;-71
2021/01/10 07:27:35;;;;;;;30.35;12.48;;;1.20;99.90;;;;;;4965781;28;20083;-71
2021/01/10 07:30:36;;;;;;;29.95;13.15;;;1.20;99.90;;;;;;4959560;28;20049;-71
2021/01/10 07:33:21;;;;;;;48.42;22.40;;;1.10;99.90;;;;;;4938796;28;20098;-76
2021/01/10 07:35:59;;;;;;;26.75;13.63;;;1.20;99.90;;;;;;4962397;28;20061;-77
2021/01/10 07:38:32;;;;;;;25.40;13.15;;;1.10;99.90;;;;;;4979084;28;20039;-75
2021/01/10 07:41:22;;;;;;;22.20;10.90;;;1.00;99.90;;;;;;4960219;28;20134;-75
2021/01/10 07:43:49;;;;;;;24.73;11.88;;;1.10;99.90;;;;;;4953220;28;20053;-77
2021/01/10 07:46:53;;;;;;;35.10;17.75;;;1.10;99.90;;;;;;4961525;28;20447;-77
2021/01/10 07:49:27;;;;;;;42.40;21.48;;;1.00;99.90;;;;;;4980726;28;20077;-76
2021/01/10 07:51:53;;;;;;;30.42;14.98;;;0.90;99.90;;;;;;4956569;28;20031;-77
2021/01/10 07:54:55;;;;;;;47.70;26.33;;;0.90;99.90;;;;;;4982208;28;20148;-77
2021/01/10 07:57:32;;;;;;;48.95;32.28;;;0.90;99.90;;;;;;4948127;28;20844;-77
2021/01/10 08:00:28;;;;;;;26.98;12.73;;;1.00;99.90;;;;;;4962388;28;20348;-76
2021/01/10 08:03:03;;;;;;;;;;;1.10;99.90;;;;;;4960891;28;20405;-75
2021/01/10 08:05:54;;;;;;;29.73;14.00;;;1.10;99.90;;;;;;4958292;28;20367;-77
2021/01/10 08:08:21;;;;;;;32.30;15.15;;;1.10;99.90;;;;;;4965535;28;20042;-76
2021/01/10 08:10:52;;;;;;;29.92;15.15;;;1.10;99.90;;;;;;4976920;28;20043;-76
2021/01/10 08:13:30;;;;;;;35.22;17.73;;;1.00;99.90;;;;;;4965753;28;20046;-70
2021/01/10 08:15:59;;;;;;;36.05;16.92;;;1.00;99.90;;;;;;4961898;28;20042;-74
2021/01/10 08:18:29;;;;;;;30.27;14.38;;;1.00;99.90;;;;;;4959605;28;20039;-73
2021/01/10 08:20:55;;;;;;;31.10;14.43;;;0.80;99.90;;;;;;4962722;28;20495;-73
2021/01/10 08:23:22;;;;;;;30.38;14.35;;;0.80;99.90;;;;;;4972315;28;20038;-73
2021/01/10 08:25:51;;;;;;;29.20;13.77;;;0.70;99.90;;;;;;4940604;28;20039;-73
2021/01/10 08:28:18;;;;;;;30.00;14.43;;;0.60;99.90;;;;;;4961047;28;20031;-74
2021/01/10 08:30:45;;;;;;;22.77;11.65;;;0.60;99.90;;;;;;4963215;28;20774;-76
2021/01/10 08:33:20;;;;;;;25.77;12.13;;;0.60;99.90;;;;;;4961083;28;20038;-77
2021/01/10 08:35:46;;;;;;;27.58;13.02;;;0.60;99.90;;;;;;4960091;28;20038;-76
2021/01/10 08:38:12;;;;;;;23.83;11.70;;;0.70;99.90;;;;;;4966730;28;20779;-77
2021/01/10 08:40:38;;;;;;;22.15;10.98;;;0.80;99.90;;;;;;4988116;28;20117;-77
2021/01/10 08:43:04;;;;;;;20.95;11.40;;;0.80;99.90;;;;;;4963883;28;20081;-77
2021/01/10 08:45:30;;;;;;;24.38;12.52;;;0.70;99.90;;;;;;4961410;28;20134;-77
2021/01/10 08:48:01;;;;;;;25.55;13.05;;;0.80;99.90;;;;;;4961597;28;20040;-76
2021/01/10 08:50:38;;;;;;;21.73;11.38;;;0.80;99.90;;;;;;4968478;28;20463;-76
2021/01/10 08:53:03;;;;;;;18.75;9.68;;;0.90;99.90;;;;;;4965961;28;20112;-77
2021/01/10 08:55:36;;;;;;;23.58;10.05;;;1.00;99.90;;;;;;4964852;28;20039;-77
2021/01/10 08:58:04;;;;;;;20.77;10.55;;;1.00;99.90;;;;;;4969598;28;20031;-77
2021/01/10 09:00:30;;;;;;;22.40;11.68;;;1.00;99.90;;;;;;4969276;28;20038;-77
2021/01/10 09:03:11;;;;;;;23.38;11.48;;;1.00;99.90;;;;;;4963771;28;20034;-77
2021/01/10 09:05:38;;;;;;;26.15;12.80;;;1.00;99.90;;;;;;4969512;28;20404;-76
2021/01/10 09:08:04;;;;;;;20.80;11.40;;;0.90;99.90;;;;;;4971702;28;20027;-76
2021/01/10 09:10:37;;;;;;;19.42;10.13;;;1.00;99.90;;;;;;4962871;28;20901;-77
2021/01/10 09:13:07;;;;;;;18.50;9.52;;;1.00;99.90;;;;;;4970473;28;20054;-76
2021/01/10 09:15:37;;;;;;;18.50;9.52;;;1.00;99.90;;;;;;4957504;28;20034;-73
2021/01/10 09:18:07;;;;;;;17.45;9.30;;;0.90;99.90;;;;;;4958181;28;20035;-73
2021/01/10 09:20:38;;;;;;;24.52;15.05;;;1.00;99.90;;;;;;4962413;28;20034;-73
2021/01/10 09:23:09;;;;;;;17.88;9.35;;;1.20;99.90;;;;;;4967866;28;20479;-73
2021/01/10 09:25:35;;;;;;;21.15;12.27;;;1.20;99.90;;;;;;4959995;28;20910;-72
2021/01/10 09:28:13;;;;;;;19.20;9.82;;;1.40;99.90;;;;;;4963663;28;20518;-73
2021/01/10 09:30:53;;;;;;;21.13;11.35;;;1.40;99.90;;;;;;4962827;28;20043;-71
2021/01/10 09:33:25;;;;;;;33.10;17.42;;;1.50;99.90;;;;;;4962559;28;20031;-71
2021/01/10 09:35:53;;;;;;;20.67;11.30;;;1.50;99.90;;;;;;4971770;28;20074;-71
2021/01/10 09:38:23;;;;;;;19.63;10.85;;;1.40;99.90;;;;;;4968759;28;20069;-71
2021/01/10 09:41:14;;;;;;;21.50;11.25;;;1.50;99.90;;;;;;4958718;28;20097;-71
2021/01/10 09:43:40;;;;;;;17.58;9.23;;;1.40;99.90;;;;;;4959068;28;20038;-71
2021/01/10 09:46:33;;;;;;;17.00;9.65;;;1.30;99.90;;;;;;4963822;28;20073;-71
2021/01/10 09:49:06;;;;;;;17.58;8.80;;;1.40;99.90;;;;;;4957594;28;20043;-71
2021/01/10 09:51:43;;;;;;;22.75;11.77;;;1.60;99.90;;;;;;4966064;28;20038;-71
2021/01/10 09:54:10;;;;;;;13.10;7.70;;;1.80;99.90;;;;;;4972359;28;20411;-71
2021/01/10 09:56:38;;;;;;;14.20;7.03;;;1.70;99.90;;;;;;4964169;28;20141;-73
2021/01/10 09:59:42;;;;;;;13.73;7.82;;;1.60;99.90;;;;;;4966870;28;20110;-72
2021/01/10 10:02:18;;;;;;;19.48;9.27;;;1.80;99.90;;;;;;4976543;28;20110;-71
2021/01/10 10:04:45;;;;;;;14.18;6.93;;;1.70;99.90;;;;;;4971572;28;20113;-71
2021/01/10 10:07:13;;;;;;;12.60;6.57;;;1.60;99.90;;;;;;4960683;28;20045;-71
2021/01/10 10:09:46;;;;;;;12.98;6.82;;;1.50;99.90;;;;;;4959439;28;20116;-71
2021/01/10 10:12:12;;;;;;;16.83;9.60;;;1.40;99.90;;;;;;4969193;28;20491;-71
2021/01/10 10:14:38;;;;;;;14.82;8.43;;;1.50;99.90;;;;;;4968382;28;20090;-71
2021/01/10 10:17:04;;;;;;;15.50;8.52;;;1.50;99.90;;;;;;4962864;28;20026;-71
2021/01/10 10:19:30;;;;;;;14.48;7.82;;;1.50;99.90;;;;;;4957008;28;20089;-72
2021/01/10 10:21:55;;;;;;;21.90;9.57;;;1.60;99.90;;;;;;4974642;28;20093;-71
2021/01/10 10:24:21;;;;;;;23.45;9.23;;;1.80;99.90;;;;;;4962312;28;20031;-71
2021/01/10 10:26:47;;;;;;;14.40;7.43;;;1.90;99.90;;;;;;4961507;28;20039;-71
2021/01/10 10:29:12;;;;;;;14.85;7.28;;;1.90;99.90;;;;;;4982515;28;20109;-71
2021/01/10 10:31:38;;;;;;;12.77;7.65;;;1.70;99.90;;;;;;4965668;28;20050;-71
2021/01/10 10:34:03;;;;;;;14.68;7.60;;;1.60;99.90;;;;;;4972027;28;20046;-71
2021/01/10 10:36:29;;;;;;;14.07;7.82;;;1.60;99.90;;;;;;4951149;28;20042;-71
2021/01/10 10:38:55;;;;;;;22.33;11.55;;;1.40;99.90;;;;;;4965643;28;20038;-71
2021/01/10 10:41:21;;;;;;;16.75;8.65;;;1.40;99.90;;;;;;4955217;28;20089;-72
2021/01/10 10:43:46;;;;;;;17.42;9.15;;;1.40;99.90;;;;;;4965581;28;20035;-72
2021/01/10 10:46:12;;;;;;;19.80;10.48;;;1.50;99.90;;;;;;4960659;28;20044;-71
2021/01/10 10:48:38;;;;;;;16.30;8.73;;;1.60;99.90;;;;;;4957268;28;20034;-71
2021/01/10 10:51:04;;;;;;;13.88;7.53;;;1.70;99.90;;;;;;4963335;28;20772;-71
2021/01/10 10:53:29;;;;;;;18.48;8.20;;;1.80;99.90;;;;;;4958026;28;20039;-72
2021/01/10 10:55:55;;;;;;;27.02;14.02;;;1.90;99.90;;;;;;4960657;28;20038;-71
2021/01/10 10:58:21;;;;;;;14.73;7.57;;;2.10;99.90;;;;;;4966842;28;20109;-72
2021/01/10 11:00:46;;;;;;;18.02;8.77;;;2.30;99.90;;;;;;4963858;28;20034;-71
2021/01/10 11:03:12;;;;;;;13.50;7.40;;;2.30;99.90;;;;;;4971646;28;20719;-72
2021/01/10 11:05:38;;;;;;;16.70;9.43;;;2.20;99.90;;;;;;4963477;28;20039;-70
2021/01/10 11:08:03;;;;;;;15.85;8.82;;;2.10;99.90;;;;;;4958831;28;20038;-70
2021/01/10 11:10:29;;;;;;;19.17;10.23;;;2.10;99.90;;;;;;4966622;28;20068;-70
2021/01/10 11:12:55;;;;;;;23.95;12.13;;;2.10;99.90;;;;;;4963017;28;20038;-77
2021/01/10 11:15:23;;;;;;;30.63;17.25;;;1.80;99.90;;;;;;4959137;28;20070;-76
2021/01/10 11:17:49;;;;;;;18.50;9.32;;;1.80;99.90;;;;;;4968446;28;20097;-73
2021/01/10 11:20:15;;;;;;;19.05;11.43;;;1.90;99.90;;;;;;4960284;28;20043;-78
2021/01/10 11:22:41;;;;;;;17.63;9.32;;;2.00;99.90;;;;;;4970473;28;20042;-77
2021/01/10 11:25:09;;;;;;;19.50;10.07;;;2.10;99.90;;;;;;4962929;28;20041;-77
2021/01/10 11:27:35;;;;;;;20.38;11.23;;;2.10;99.90;;;;;;4966945;28;20022;-76
2021/01/10 11:30:00;;;;;;;23.45;11.80;;;2.20;99.90;;;;;;4950017;28;20038;-77
2021/01/10 11:32:26;;;;;;;16.17;8.30;;;1.90;99.90;;;;;;4965806;28;20118;-76
2021/01/10 11:34:53;;;;;;;21.23;11.70;;;2.00;99.90;;;;;;4969715;28;20026;-76
2021/01/10 11:37:21;;;;;;;16.80;8.95;;;1.90;99.90;;;;;;4964846;28;20908;-77
2021/01/10 11:39:46;;;;;;;18.90;9.13;;;1.90;99.90;;;;;;4969065;28;20038;-76
2021/01/10 11:42:14;;;;;;;19.63;10.63;;;1.90;99.90;;;;;;4965580;28;20041;-77
2021/01/10 11:44:39;;;;;;;19.88;11.18;;;2.00;99.90;;;;;;4968602;28;20046;-77
2021/01/10 11:47:05;;;;;;;20.75;11.55;;;1.90;99.90;;;;;;4978317;28;20030;-73
2021/01/10 11:49:31;;;;;;;16.45;8.70;;;1.80;99.90;;;;;;4969217;28;20039;-76
2021/01/10 11:51:57;;;;;;;20.25;10.55;;;1.90;99.90;;;;;;4964942;28;20038;-76
2021/01/10 11:54:23;;;;;;;16.88;8.95;;;1.70;99.90;;;;;;4987953;28;20069;-76
2021/01/10 11:56:49;;;;;;;17.30;9.38;;;1.90;99.90;;;;;;4957402;28;20144;-76
2021/01/10 11:59:16;;;;;;;16.73;8.98;;;2.20;99.90;;;;;;4969835;28;20538;-79
2021/01/10 12:01:43;;;;;;;18.58;9.45;;;2.40;99.90;;;;;;4970908;28;20038;-76
2021/01/10 12:04:08;;;;;;;17.10;10.48;;;2.50;99.90;;;;;;4960008;28;20112;-76
2021/01/10 12:06:36;;;;;;;17.45;9.98;;;2.30;99.90;;;;;;4964708;28;20551;-76
2021/01/10 12:09:03;;;;;;;18.92;10.65;;;2.00;99.90;;;;;;4964936;28;20089;-76
2021/01/10 12:11:29;;;;;;;18.90;10.10;;;2.10;99.90;;;;;;4961867;28;20042;-75
2021/01/10 12:13:55;;;;;;;19.27;10.38;;;2.30;99.90;;;;;;4963808;28;20491;-73
2021/01/10 12:16:21;;;;;;;19.42;10.60;;;2.10;99.90;;;;;;4947221;28;20404;-77
2021/01/10 12:18:47;;;;;;;30.67;14.60;;;2.00;99.90;;;;;;4973091;28;20040;-76
2021/01/10 12:21:15;;;;;;;19.20;10.30;;;1.90;99.90;;;;;;4965925;28;20042;-77
2021/01/10 12:23:42;;;;;;;17.77;9.90;;;1.90;99.90;;;;;;4972984;28;20085;-78
2021/01/10 12:26:09;;;;;;;20.38;10.15;;;1.80;99.90;;;;;;4965670;28;20053;-78
2021/01/10 12:28:36;;;;;;;25.10;10.68;;;1.80;99.90;;;;;;4967103;28;20474;-79
2021/01/10 12:31:02;;;;;;;18.63;9.50;;;1.80;99.90;;;;;;4957430;28;20057;-78
2021/01/10 12:33:27;;;;;;;17.88;10.30;;;1.70;99.90;;;;;;4969617;28;20813;-77
2021/01/10 12:35:53;;;;;;;20.45;10.93;;;1.60;99.90;;;;;;4959050;28;20089;-77
2021/01/10 12:38:19;;;;;;;19.48;10.88;;;1.50;99.90;;;;;;4961722;28;20105;-77
2021/01/10 12:40:44;;;;;;;20.05;10.57;;;1.60;99.90;;;;;;4971232;28;20038;-76
2021/01/10 12:43:10;;;;;;;20.75;11.13;;;1.80;99.90;;;;;;4959531;28;20030;-77
2021/01/10 12:45:38;;;;;;;19.75;10.43;;;1.90;99.90;;;;;;4959580;28;20776;-77
2021/01/10 12:48:04;;;;;;;18.85;10.05;;;1.90;99.90;;;;;;4962468;28;20031;-77